sensor_id;sensor_type;location;lat;lon;timestamp;P1;durP1;ratioP1;P2;durP2;ratioP2
30533;SDS011;73248;52.398;9.814;2023-11-21T00:01:59;17.40;;;5.25;;
30533;SDS011;73248;52.398;9.814;2023-11-21T00:04:27;10.52;;;4.50;;
30533;SDS011;73248;52.398;9.814;2023-11-21T00:06:54;19.50;;;5.63;;
30533;SDS011;73248;52.398;9.814;2023-11-21T00:09:19;13.73;;;4.75;;
30533;SDS011;73248;52.398;9.814;2023-11-21T00:11:47;16.50;;;5.07;;
30533;SDS011;73248;52.398;9.814;2023-11-21T00:14:13;16.85;;;5.80;;
30533;SDS011;73248;52.398;9.814;2023-11-21T00:16:40;19.27;;;6.07;;
30533;SDS011;73248;52.398;9.814;2023-11-21T00:19:10;15.65;;;5.03;;
30533;SDS011;73248;52.398;9.814;2023-11-21T00:21:36;17.55;;;5.68;;
30533;SDS011;73248;52.398;9.814;2023-11-21T00:24:02;22.35;;;7.22;;
30533;SDS011;73248;52.398;9.814;2023-11-21T00:26:28;18.40;;;5.85;;
30533;SDS011;73248;52.398;9.814;2023-11-21T00:28:53;24.75;;;6.55;;
30533;SDS011;73248;52.398;9.814;2023-11-21T00:31:22;20.60;;;6.45;;
30533;SDS011;73248;52.398;9.814;2023-11-21T00:36:13;16.15;;;5.97;;
30533;SDS011;73248;52.398;9.814;2023-11-21T00:41:07;22.38;;;7.35;;
30533;SDS011;73248;52.398;9.814;2023-11-21T00:43:32;26.52;;;7.95;;
30533;SDS011;73248;52.398;9.814;2023-11-21T00:45:58;23.45;;;8.23;;
30533;SDS011;73248;52.398;9.814;2023-11-21T00:48:24;28.65;;;7.93;;
30533;SDS011;73248;52.398;9.814;2023-11-21T00:50:52;30.33;;;8.98;;
30533;SDS011;73248;52.398;9.814;2023-11-21T00:53:18;23.00;;;8.15;;
30533;SDS011;73248;52.398;9.814;2023-11-21T00:55:43;21.33;;;7.88;;
30533;SDS011;73248;52.398;9.814;2023-11-21T00:58:09;21.73;;;7.90;;
30533;SDS011;73248;52.398;9.814;2023-11-21T01:00:35;23.55;;;8.70;;
30533;SDS011;73248;52.398;9.814;2023-11-21T01:03:04;15.18;;;8.38;;
30533;SDS011;73248;52.398;9.814;2023-11-21T01:05:35;30.05;;;9.25;;
30533;SDS011;73248;52.398;9.814;2023-11-21T01:10:26;24.60;;;7.90;;
30533;SDS011;73248;52.398;9.814;2023-11-21T01:12:51;35.63;;;8.60;;
30533;SDS011;73248;52.398;9.814;2023-11-21T01:15:17;27.90;;;8.25;;
30533;SDS011;73248;52.398;9.814;2023-11-21T01:17:47;20.88;;;9.07;;
30533;SDS011;73248;52.398;9.814;2023-11-21T01:20:14;23.42;;;9.70;;
30533;SDS011;73248;52.398;9.814;2023-11-21T01:22:40;21.55;;;9.13;;
30533;SDS011;73248;52.398;9.814;2023-11-21T01:25:06;30.50;;;10.15;;
30533;SDS011;73248;52.398;9.814;2023-11-21T01:27:35;28.65;;;9.32;;
30533;SDS011;73248;52.398;9.814;2023-11-21T01:30:06;25.48;;;10.05;;
30533;SDS011;73248;52.398;9.814;2023-11-21T01:32:33;32.38;;;10.50;;
30533;SDS011;73248;52.398;9.814;2023-11-21T01:34:59;31.27;;;9.30;;
30533;SDS011;73248;52.398;9.814;2023-11-21T01:37:25;31.10;;;10.95;;
30533;SDS011;73248;52.398;9.814;2023-11-21T01:39:55;34.03;;;11.43;;
30533;SDS011;73248;52.398;9.814;2023-11-21T01:42:21;31.58;;;10.95;;
30533;SDS011;73248;52.398;9.814;2023-11-21T01:44:47;30.60;;;10.02;;
30533;SDS011;73248;52.398;9.814;2023-11-21T01:47:13;32.97;;;10.90;;
30533;SDS011;73248;52.398;9.814;2023-11-21T01:49:39;26.40;;;10.75;;
30533;SDS011;73248;52.398;9.814;2023-11-21T01:52:05;27.05;;;11.75;;
30533;SDS011;73248;52.398;9.814;2023-11-21T01:54:36;28.20;;;11.07;;
30533;SDS011;73248;52.398;9.814;2023-11-21T01:57:02;30.88;;;11.10;;
30533;SDS011;73248;52.398;9.814;2023-11-21T01:59:35;25.42;;;11.88;;
30533;SDS011;73248;52.398;9.814;2023-11-21T02:02:05;32.35;;;11.60;;
30533;SDS011;73248;52.398;9.814;2023-11-21T02:04:35;33.60;;;12.38;;
30533;SDS011;73248;52.398;9.814;2023-11-21T02:07:02;30.77;;;10.90;;
30533;SDS011;73248;52.398;9.814;2023-11-21T02:09:31;30.63;;;11.38;;
30533;SDS011;73248;52.398;9.814;2023-11-21T02:11:58;28.10;;;10.82;;
30533;SDS011;73248;52.398;9.814;2023-11-21T02:14:25;30.85;;;12.32;;
30533;SDS011;73248;52.398;9.814;2023-11-21T02:16:54;32.67;;;11.98;;
30533;SDS011;73248;52.398;9.814;2023-11-21T02:19:22;32.60;;;10.98;;
30533;SDS011;73248;52.398;9.814;2023-11-21T02:21:53;36.15;;;11.93;;
30533;SDS011;73248;52.398;9.814;2023-11-21T02:24:23;31.52;;;12.13;;
30533;SDS011;73248;52.398;9.814;2023-11-21T02:26:49;44.45;;;13.70;;
30533;SDS011;73248;52.398;9.814;2023-11-21T02:29:18;27.40;;;12.15;;
30533;SDS011;73248;52.398;9.814;2023-11-21T02:31:53;29.65;;;13.52;;
30533;SDS011;73248;52.398;9.814;2023-11-21T02:34:22;30.23;;;12.95;;
30533;SDS011;73248;52.398;9.814;2023-11-21T02:36:50;38.03;;;13.18;;
30533;SDS011;73248;52.398;9.814;2023-11-21T02:39:16;34.17;;;13.32;;
30533;SDS011;73248;52.398;9.814;2023-11-21T02:41:47;30.95;;;12.48;;
30533;SDS011;73248;52.398;9.814;2023-11-21T02:44:12;32.80;;;12.05;;
30533;SDS011;73248;52.398;9.814;2023-11-21T02:46:38;40.58;;;12.70;;
30533;SDS011;73248;52.398;9.814;2023-11-21T02:49:07;35.40;;;14.10;;
30533;SDS011;73248;52.398;9.814;2023-11-21T02:51:35;41.58;;;14.20;;
30533;SDS011;73248;52.398;9.814;2023-11-21T02:54:03;39.47;;;14.05;;
30533;SDS011;73248;52.398;9.814;2023-11-21T02:56:31;40.08;;;13.85;;
30533;SDS011;73248;52.398;9.814;2023-11-21T02:59:00;33.90;;;13.90;;
30533;SDS011;73248;52.398;9.814;2023-11-21T03:01:29;33.92;;;14.63;;
30533;SDS011;73248;52.398;9.814;2023-11-21T03:03:56;34.33;;;14.48;;
30533;SDS011;73248;52.398;9.814;2023-11-21T03:06:21;34.40;;;13.40;;
30533;SDS011;73248;52.398;9.814;2023-11-21T03:08:48;30.17;;;13.90;;
30533;SDS011;73248;52.398;9.814;2023-11-21T03:11:14;43.58;;;15.63;;
30533;SDS011;73248;52.398;9.814;2023-11-21T03:13:40;40.55;;;14.23;;
30533;SDS011;73248;52.398;9.814;2023-11-21T03:16:12;41.85;;;14.48;;
30533;SDS011;73248;52.398;9.814;2023-11-21T03:18:41;36.67;;;13.95;;
30533;SDS011;73248;52.398;9.814;2023-11-21T03:21:12;36.97;;;13.77;;
30533;SDS011;73248;52.398;9.814;2023-11-21T03:23:39;42.13;;;14.93;;
30533;SDS011;73248;52.398;9.814;2023-11-21T03:26:05;36.15;;;15.13;;
30533;SDS011;73248;52.398;9.814;2023-11-21T03:28:33;43.55;;;15.10;;
30533;SDS011;73248;52.398;9.814;2023-11-21T03:30:59;38.08;;;14.55;;
30533;SDS011;73248;52.398;9.814;2023-11-21T03:33:26;38.38;;;15.00;;
30533;SDS011;73248;52.398;9.814;2023-11-21T03:35:52;39.75;;;14.85;;
30533;SDS011;73248;52.398;9.814;2023-11-21T03:38:18;36.25;;;15.30;;
30533;SDS011;73248;52.398;9.814;2023-11-21T03:40:46;41.58;;;16.60;;
30533;SDS011;73248;52.398;9.814;2023-11-21T03:45:38;38.63;;;15.93;;
30533;SDS011;73248;52.398;9.814;2023-11-21T03:48:06;42.70;;;16.88;;
30533;SDS011;73248;52.398;9.814;2023-11-21T03:50:32;53.13;;;17.02;;
30533;SDS011;73248;52.398;9.814;2023-11-21T03:52:58;50.08;;;18.10;;
30533;SDS011;73248;52.398;9.814;2023-11-21T03:55:26;46.38;;;17.83;;
30533;SDS011;73248;52.398;9.814;2023-11-21T03:57:56;44.00;;;17.73;;
30533;SDS011;73248;52.398;9.814;2023-11-21T04:00:31;51.90;;;18.25;;
30533;SDS011;73248;52.398;9.814;2023-11-21T04:02:56;49.83;;;17.30;;
30533;SDS011;73248;52.398;9.814;2023-11-21T04:05:25;44.35;;;18.48;;
30533;SDS011;73248;52.398;9.814;2023-11-21T04:07:50;46.00;;;18.45;;
30533;SDS011;73248;52.398;9.814;2023-11-21T04:10:16;46.05;;;18.20;;
30533;SDS011;73248;52.398;9.814;2023-11-21T04:12:44;50.67;;;18.92;;
30533;SDS011;73248;52.398;9.814;2023-11-21T04:15:10;52.05;;;18.38;;
30533;SDS011;73248;52.398;9.814;2023-11-21T04:17:38;45.22;;;18.15;;
30533;SDS011;73248;52.398;9.814;2023-11-21T04:20:07;44.83;;;17.23;;
30533;SDS011;73248;52.398;9.814;2023-11-21T04:22:38;46.00;;;17.90;;
30533;SDS011;73248;52.398;9.814;2023-11-21T04:25:10;55.65;;;19.02;;
30533;SDS011;73248;52.398;9.814;2023-11-21T04:27:38;47.85;;;18.42;;
30533;SDS011;73248;52.398;9.814;2023-11-21T04:30:09;50.00;;;18.85;;
30533;SDS011;73248;52.398;9.814;2023-11-21T04:32:35;52.28;;;19.60;;
30533;SDS011;73248;52.398;9.814;2023-11-21T04:35:01;50.42;;;19.30;;
30533;SDS011;73248;52.398;9.814;2023-11-21T04:37:27;49.13;;;18.58;;
30533;SDS011;73248;52.398;9.814;2023-11-21T04:39:54;52.78;;;18.92;;
30533;SDS011;73248;52.398;9.814;2023-11-21T04:42:20;49.53;;;18.65;;
30533;SDS011;73248;52.398;9.814;2023-11-21T04:44:45;46.45;;;18.75;;
30533;SDS011;73248;52.398;9.814;2023-11-21T04:47:11;51.22;;;19.50;;
30533;SDS011;73248;52.398;9.814;2023-11-21T04:49:37;44.80;;;18.10;;
30533;SDS011;73248;52.398;9.814;2023-11-21T04:52:04;51.88;;;19.10;;
30533;SDS011;73248;52.398;9.814;2023-11-21T04:54:34;49.55;;;17.73;;
30533;SDS011;73248;52.398;9.814;2023-11-21T04:57:00;50.75;;;18.40;;
30533;SDS011;73248;52.398;9.814;2023-11-21T04:59:26;47.55;;;18.75;;
30533;SDS011;73248;52.398;9.814;2023-11-21T05:01:54;44.50;;;17.25;;
30533;SDS011;73248;52.398;9.814;2023-11-21T05:04:20;53.60;;;19.00;;
30533;SDS011;73248;52.398;9.814;2023-11-21T05:06:50;33.38;;;15.73;;
30533;SDS011;73248;52.398;9.814;2023-11-21T05:09:17;40.90;;;16.65;;
30533;SDS011;73248;52.398;9.814;2023-11-21T05:11:42;40.38;;;16.98;;
30533;SDS011;73248;52.398;9.814;2023-11-21T05:14:08;38.75;;;15.82;;
30533;SDS011;73248;52.398;9.814;2023-11-21T05:16:34;35.58;;;16.27;;
30533;SDS011;73248;52.398;9.814;2023-11-21T05:19:03;39.22;;;15.75;;
30533;SDS011;73248;52.398;9.814;2023-11-21T05:21:29;35.45;;;15.73;;
30533;SDS011;73248;52.398;9.814;2023-11-21T05:23:57;37.97;;;15.00;;
30533;SDS011;73248;52.398;9.814;2023-11-21T05:26:22;28.88;;;13.82;;
30533;SDS011;73248;52.398;9.814;2023-11-21T05:28:48;34.13;;;15.02;;
30533;SDS011;73248;52.398;9.814;2023-11-21T05:31:16;35.55;;;15.15;;
30533;SDS011;73248;52.398;9.814;2023-11-21T05:33:41;39.47;;;15.32;;
30533;SDS011;73248;52.398;9.814;2023-11-21T05:36:07;36.78;;;16.02;;
30533;SDS011;73248;52.398;9.814;2023-11-21T05:38:33;35.05;;;15.80;;
30533;SDS011;73248;52.398;9.814;2023-11-21T05:41:02;32.25;;;15.10;;
30533;SDS011;73248;52.398;9.814;2023-11-21T05:43:31;27.13;;;12.77;;
30533;SDS011;73248;52.398;9.814;2023-11-21T05:46:00;29.83;;;13.20;;
30533;SDS011;73248;52.398;9.814;2023-11-21T05:50:54;26.02;;;11.55;;
30533;SDS011;73248;52.398;9.814;2023-11-21T05:53:20;23.45;;;11.88;;
30533;SDS011;73248;52.398;9.814;2023-11-21T05:55:46;26.48;;;12.60;;
30533;SDS011;73248;52.398;9.814;2023-11-21T05:58:14;23.65;;;11.68;;
30533;SDS011;73248;52.398;9.814;2023-11-21T06:00:40;25.10;;;11.15;;
30533;SDS011;73248;52.398;9.814;2023-11-21T06:03:08;24.20;;;12.10;;
30533;SDS011;73248;52.398;9.814;2023-11-21T06:05:33;24.60;;;12.30;;
30533;SDS011;73248;52.398;9.814;2023-11-21T06:08:01;22.40;;;11.45;;
30533;SDS011;73248;52.398;9.814;2023-11-21T06:10:27;22.20;;;10.57;;
30533;SDS011;73248;52.398;9.814;2023-11-21T06:12:53;21.52;;;11.63;;
30533;SDS011;73248;52.398;9.814;2023-11-21T06:15:19;19.58;;;10.55;;
30533;SDS011;73248;52.398;9.814;2023-11-21T06:17:48;27.92;;;10.65;;
30533;SDS011;73248;52.398;9.814;2023-11-21T06:20:20;21.48;;;11.07;;
30533;SDS011;73248;52.398;9.814;2023-11-21T06:22:47;19.35;;;9.70;;
30533;SDS011;73248;52.398;9.814;2023-11-21T06:25:14;17.77;;;9.30;;
30533;SDS011;73248;52.398;9.814;2023-11-21T06:27:43;15.75;;;8.80;;
30533;SDS011;73248;52.398;9.814;2023-11-21T06:30:13;15.30;;;7.45;;
30533;SDS011;73248;52.398;9.814;2023-11-21T06:32:40;9.95;;;5.25;;
30533;SDS011;73248;52.398;9.814;2023-11-21T06:35:10;9.88;;;4.85;;
30533;SDS011;73248;52.398;9.814;2023-11-21T06:37:36;10.82;;;4.30;;
30533;SDS011;73248;52.398;9.814;2023-11-21T06:40:03;9.77;;;4.72;;
30533;SDS011;73248;52.398;9.814;2023-11-21T06:42:31;10.75;;;4.95;;
30533;SDS011;73248;52.398;9.814;2023-11-21T06:44:58;9.77;;;4.90;;
30533;SDS011;73248;52.398;9.814;2023-11-21T06:47:29;13.90;;;5.60;;
30533;SDS011;73248;52.398;9.814;2023-11-21T06:49:58;11.23;;;5.47;;
30533;SDS011;73248;52.398;9.814;2023-11-21T06:52:25;14.90;;;5.95;;
30533;SDS011;73248;52.398;9.814;2023-11-21T06:54:50;13.20;;;6.50;;
30533;SDS011;73248;52.398;9.814;2023-11-21T06:57:16;7.32;;;4.75;;
30533;SDS011;73248;52.398;9.814;2023-11-21T06:59:42;9.57;;;4.78;;
30533;SDS011;73248;52.398;9.814;2023-11-21T07:02:08;9.32;;;4.93;;
30533;SDS011;73248;52.398;9.814;2023-11-21T07:04:34;11.85;;;4.93;;
30533;SDS011;73248;52.398;9.814;2023-11-21T07:07:01;12.48;;;4.65;;
30533;SDS011;73248;52.398;9.814;2023-11-21T07:09:32;7.00;;;4.47;;
30533;SDS011;73248;52.398;9.814;2023-11-21T07:12:00;9.30;;;4.78;;
30533;SDS011;73248;52.398;9.814;2023-11-21T07:14:28;10.30;;;4.75;;
30533;SDS011;73248;52.398;9.814;2023-11-21T07:16:54;8.07;;;4.78;;
30533;SDS011;73248;52.398;9.814;2023-11-21T07:19:22;7.85;;;4.50;;
30533;SDS011;73248;52.398;9.814;2023-11-21T07:21:49;6.47;;;3.90;;
30533;SDS011;73248;52.398;9.814;2023-11-21T07:24:20;10.82;;;4.45;;
30533;SDS011;73248;52.398;9.814;2023-11-21T07:26:47;8.48;;;4.15;;
30533;SDS011;73248;52.398;9.814;2023-11-21T07:29:13;7.70;;;4.43;;
30533;SDS011;73248;52.398;9.814;2023-11-21T07:31:38;9.40;;;4.72;;
30533;SDS011;73248;52.398;9.814;2023-11-21T07:34:06;11.93;;;4.77;;
30533;SDS011;73248;52.398;9.814;2023-11-21T07:36:33;11.63;;;5.03;;
30533;SDS011;73248;52.398;9.814;2023-11-21T07:39:03;8.70;;;5.07;;
30533;SDS011;73248;52.398;9.814;2023-11-21T07:41:31;8.35;;;4.85;;
